createdAt,value
2023-01-13T00:00:32.091Z,993.44
2023-01-13T00:01:32.047Z,993.37
2023-01-13T00:02:32.051Z,993.36
2023-01-13T00:03:32.019Z,993.39
2023-01-13T00:04:32.069Z,993.38
2023-01-13T00:05:31.977Z,993.35
2023-01-13T00:06:31.979Z,993.40
2023-01-13T00:07:31.965Z,993.34
2023-01-13T00:08:31.936Z,993.36
2023-01-13T00:09:31.956Z,993.24
2023-01-13T00:10:31.927Z,993.25
2023-01-13T00:11:31.907Z,993.33
2023-01-13T00:12:31.887Z,993.24
2023-01-13T00:13:31.889Z,993.16
2023-01-13T00:14:31.882Z,993.18
2023-01-13T00:15:31.867Z,993.18
2023-01-13T00:16:31.864Z,993.15
2023-01-13T00:17:31.827Z,993.18
2023-01-13T00:18:31.820Z,993.08
2023-01-13T00:19:31.877Z,993.06
2023-01-13T00:20:31.778Z,993.08
2023-01-13T00:21:31.767Z,993.02
2023-01-13T00:22:31.757Z,993.04
2023-01-13T00:23:31.756Z,993.06
2023-01-13T00:24:31.806Z,992.98
2023-01-13T00:25:31.732Z,993.09
2023-01-13T00:26:31.710Z,993.02
2023-01-13T00:27:31.769Z,993.07
2023-01-13T00:28:31.703Z,993.08
2023-01-13T00:29:31.699Z,993.01
2023-01-13T00:30:31.649Z,993.09
2023-01-13T00:31:31.844Z,993.06
2023-01-13T00:32:31.657Z,993.03
2023-01-13T00:33:31.630Z,993.00
2023-01-13T00:34:31.621Z,993.03
2023-01-13T00:35:31.611Z,993.05
2023-01-13T00:36:31.596Z,993.05
2023-01-13T00:37:31.557Z,993.06
2023-01-13T00:38:31.548Z,993.09
2023-01-13T00:39:31.557Z,993.04
2023-01-13T00:40:31.518Z,993.04
2023-01-13T00:41:31.633Z,993.00
2023-01-13T00:42:31.490Z,993.09
2023-01-13T00:43:31.492Z,993.03
2023-01-13T00:44:31.480Z,993.05
2023-01-13T00:45:31.481Z,993.02
2023-01-13T00:46:31.494Z,992.99
2023-01-13T00:47:31.455Z,993.03
2023-01-13T00:48:31.421Z,992.97
2023-01-13T00:49:31.425Z,993.01
2023-01-13T00:50:31.399Z,993.07
2023-01-13T00:51:31.387Z,993.00
2023-01-13T00:52:31.364Z,993.06
2023-01-13T00:53:31.347Z,992.96
2023-01-13T00:54:31.347Z,992.99
2023-01-13T00:55:31.341Z,993.03
2023-01-13T00:56:40.250Z,992.95
2023-01-13T00:57:32.306Z,992.98
2023-01-13T00:58:31.283Z,992.94
2023-01-13T00:59:31.308Z,992.96
2023-01-13T01:00:31.358Z,992.86
2023-01-13T01:01:31.357Z,992.86
2023-01-13T01:02:31.362Z,992.87
2023-01-13T01:03:31.223Z,992.84
2023-01-13T01:04:31.230Z,992.93
2023-01-13T01:05:31.193Z,992.91
2023-01-13T01:06:31.178Z,992.86
2023-01-13T01:07:31.168Z,992.91
2023-01-13T01:08:31.162Z,992.89
2023-01-13T01:09:31.148Z,992.87
2023-01-13T01:10:31.126Z,992.92
2023-01-13T01:11:31.115Z,992.86
2023-01-13T01:12:31.100Z,992.92
2023-01-13T01:13:31.085Z,992.95
2023-01-13T01:14:31.089Z,992.90
2023-01-13T01:15:31.061Z,992.90
2023-01-13T01:16:31.081Z,992.89
2023-01-13T01:17:31.050Z,992.91
2023-01-13T01:18:31.036Z,992.98
2023-01-13T01:19:31.039Z,992.91
2023-01-13T01:20:31.011Z,992.94
2023-01-13T01:21:30.982Z,992.91
2023-01-13T01:22:30.976Z,992.94
2023-01-13T01:23:30.976Z,992.91
2023-01-13T01:24:30.957Z,992.92
2023-01-13T01:25:30.938Z,992.89
2023-01-13T01:26:30.931Z,992.88
2023-01-13T01:27:30.928Z,992.92
2023-01-13T01:28:30.910Z,992.88
2023-01-13T01:29:31.031Z,992.86
2023-01-13T01:30:30.883Z,992.83
2023-01-13T01:31:30.944Z,992.95
2023-01-13T01:32:30.879Z,992.92
2023-01-13T01:33:30.822Z,992.94
2023-01-13T01:34:30.807Z,992.91
2023-01-13T01:35:30.824Z,992.88
2023-01-13T01:36:30.780Z,992.90
2023-01-13T01:37:30.779Z,992.93
2023-01-13T01:38:30.758Z,992.90
2023-01-13T01:39:30.745Z,992.86
2023-01-13T01:40:30.775Z,992.82
2023-01-13T01:41:30.712Z,992.77
2023-01-13T01:42:30.800Z,992.76
2023-01-13T01:43:30.719Z,992.80
2023-01-13T01:44:30.671Z,992.81
2023-01-13T01:45:30.684Z,992.81
2023-01-13T01:46:30.692Z,992.79
2023-01-13T01:47:30.654Z,992.80
2023-01-13T01:48:30.630Z,992.71
2023-01-13T01:49:30.615Z,992.65
2023-01-13T01:50:30.621Z,992.69
2023-01-13T01:51:30.606Z,992.69
2023-01-13T01:52:30.583Z,992.66
2023-01-13T01:53:30.582Z,992.69
2023-01-13T01:54:30.540Z,992.66
2023-01-13T01:55:30.543Z,992.64
2023-01-13T01:56:30.520Z,992.65
2023-01-13T01:57:30.518Z,992.68
2023-01-13T01:58:30.490Z,992.63
2023-01-13T01:59:30.485Z,992.64
2023-01-13T02:00:30.543Z,992.65
2023-01-13T02:01:30.571Z,992.63
2023-01-13T02:02:30.598Z,992.58
2023-01-13T02:03:30.448Z,992.54
2023-01-13T02:04:30.411Z,992.59
2023-01-13T02:05:30.412Z,992.61
2023-01-13T02:06:30.411Z,992.63
2023-01-13T02:07:30.392Z,992.51
2023-01-13T02:08:30.364Z,992.52
2023-01-13T02:09:30.341Z,992.54
2023-01-13T02:10:30.362Z,992.48
2023-01-13T02:11:30.323Z,992.49
2023-01-13T02:12:30.309Z,992.49
2023-01-13T02:13:30.309Z,992.51
2023-01-13T02:14:30.279Z,992.51
2023-01-13T02:15:30.309Z,992.51
2023-01-13T02:16:30.337Z,992.47
2023-01-13T02:17:30.243Z,992.46
2023-01-13T02:18:30.219Z,992.49
2023-01-13T02:19:30.211Z,992.47
2023-01-13T02:20:30.222Z,992.53
2023-01-13T02:21:30.195Z,992.52
2023-01-13T02:22:30.181Z,992.48
2023-01-13T02:23:30.160Z,992.57
2023-01-13T02:24:30.151Z,992.55
2023-01-13T02:25:30.151Z,992.56
2023-01-13T02:26:30.121Z,992.61
2023-01-13T02:27:30.115Z,992.61
2023-01-13T02:28:30.089Z,992.62
2023-01-13T02:29:30.073Z,992.56
2023-01-13T02:30:30.089Z,992.52
2023-01-13T02:31:30.133Z,992.47
2023-01-13T02:32:30.041Z,992.44
2023-01-13T02:33:30.031Z,992.48
2023-01-13T02:34:30.025Z,992.47
2023-01-13T02:35:30.028Z,992.44
2023-01-13T02:36:29.995Z,992.45
2023-01-13T02:37:29.983Z,992.41
2023-01-13T02:38:29.974Z,992.33
2023-01-13T02:39:29.953Z,992.26
2023-01-13T02:40:29.953Z,992.30
2023-01-13T02:41:29.922Z,992.30
2023-01-13T02:42:29.912Z,992.27
2023-01-13T02:43:29.965Z,992.24
2023-01-13T02:44:29.913Z,992.19
2023-01-13T02:45:29.924Z,992.18
2023-01-13T02:46:29.904Z,992.20
2023-01-13T02:47:29.893Z,992.25
2023-01-13T02:48:29.899Z,992.15
2023-01-13T02:49:29.863Z,992.21
2023-01-13T02:50:29.842Z,992.25
2023-01-13T02:51:29.882Z,992.19
2023-01-13T02:52:29.784Z,992.15
2023-01-13T02:53:29.794Z,992.16
2023-01-13T02:54:29.770Z,992.14
2023-01-13T02:55:29.742Z,992.13
2023-01-13T02:56:29.731Z,992.08
2023-01-13T02:57:29.711Z,992.07
2023-01-13T02:58:29.703Z,992.07
2023-01-13T02:59:29.688Z,992.10
2023-01-13T03:00:29.596Z,992.07
2023-01-13T03:01:29.747Z,992.09
2023-01-13T03:02:29.607Z,992.03
2023-01-13T03:03:29.550Z,992.11
2023-01-13T03:04:29.550Z,992.13
2023-01-13T03:05:29.535Z,992.14
2023-01-13T03:06:29.512Z,992.13
2023-01-13T03:07:29.502Z,992.06
2023-01-13T03:08:29.500Z,992.09
2023-01-13T03:09:29.501Z,992.15
2023-01-13T03:10:29.482Z,992.03
2023-01-13T03:11:29.460Z,992.05
2023-01-13T03:12:29.438Z,992.06
2023-01-13T03:13:29.450Z,991.98
2023-01-13T03:14:29.431Z,992.02
2023-01-13T03:15:29.428Z,992.03
2023-01-13T03:16:29.520Z,991.99
2023-01-13T03:17:29.392Z,991.92
2023-01-13T03:18:29.349Z,992.00
2023-01-13T03:19:29.405Z,991.95
2023-01-13T03:20:29.341Z,991.96
2023-01-13T03:21:29.344Z,991.99
2023-01-13T03:22:29.300Z,991.88
2023-01-13T03:23:29.305Z,991.93
2023-01-13T03:24:29.303Z,991.97
2023-01-13T03:25:29.275Z,992.01
2023-01-13T03:26:29.252Z,991.97
2023-01-13T03:27:29.252Z,991.97
2023-01-13T03:28:29.271Z,992.02
2023-01-13T03:29:29.211Z,992.00
2023-01-13T03:30:29.353Z,992.07
2023-01-13T03:31:29.191Z,992.07
2023-01-13T03:32:29.170Z,992.08
2023-01-13T03:33:29.163Z,992.08
2023-01-13T03:34:31.126Z,992.08
2023-01-13T03:35:29.175Z,992.17
2023-01-13T03:36:29.131Z,992.27
2023-01-13T03:37:29.122Z,992.46
2023-01-13T03:38:29.098Z,992.43
2023-01-13T03:39:29.082Z,992.41
2023-01-13T03:40:29.098Z,992.51
2023-01-13T03:41:29.052Z,992.44
2023-01-13T03:42:29.032Z,992.49
2023-01-13T03:43:29.050Z,992.42
2023-01-13T03:44:30.297Z,992.29
2023-01-13T03:45:29.018Z,992.43
2023-01-13T03:46:29.022Z,992.30
2023-01-13T03:47:28.983Z,992.36
2023-01-13T03:48:28.963Z,992.41
2023-01-13T03:49:28.941Z,992.44
2023-01-13T03:50:28.943Z,992.48
2023-01-13T03:51:28.923Z,992.46
2023-01-13T03:52:28.913Z,992.44
2023-01-13T03:53:28.903Z,992.41
2023-01-13T03:54:28.883Z,992.39
2023-01-13T03:55:28.901Z,992.40
2023-01-13T03:56:28.854Z,992.35
2023-01-13T03:57:28.843Z,992.36
2023-01-13T03:58:28.865Z,992.30
2023-01-13T03:59:28.815Z,992.24
2023-01-13T04:00:28.844Z,992.32
2023-01-13T04:01:29.060Z,992.31
2023-01-13T04:02:28.771Z,992.27
2023-01-13T04:03:28.803Z,992.28
2023-01-13T04:04:28.755Z,992.20
2023-01-13T04:05:28.760Z,992.20
2023-01-13T04:06:28.721Z,992.20
2023-01-13T04:07:28.723Z,992.22
2023-01-13T04:08:28.692Z,992.26
2023-01-13T04:09:29.534Z,992.27
2023-01-13T04:10:28.725Z,992.20
2023-01-13T04:11:28.676Z,992.22
2023-01-13T04:12:28.657Z,992.27
2023-01-13T04:13:28.633Z,992.32
2023-01-13T04:14:28.625Z,992.34
2023-01-13T04:15:28.691Z,992.35
2023-01-13T04:16:28.664Z,992.44
2023-01-13T04:17:28.596Z,992.44
2023-01-13T04:18:28.565Z,992.51
2023-01-13T04:19:28.553Z,992.55
2023-01-13T04:20:28.551Z,992.66
2023-01-13T04:21:28.563Z,992.63
2023-01-13T04:22:28.515Z,992.72
2023-01-13T04:23:28.547Z,992.81
2023-01-13T04:24:28.499Z,992.80
2023-01-13T04:25:28.477Z,992.83
2023-01-13T04:26:28.481Z,992.92
2023-01-13T04:27:28.454Z,992.92
2023-01-13T04:28:28.431Z,992.96
2023-01-13T04:29:28.424Z,993.01
2023-01-13T04:30:28.422Z,992.99
2023-01-13T04:31:28.482Z,992.98
2023-01-13T04:32:28.384Z,993.03
2023-01-13T04:33:28.393Z,993.02
2023-01-13T04:34:28.608Z,993.00
2023-01-13T04:35:28.342Z,992.98
2023-01-13T04:36:28.362Z,992.98
2023-01-13T04:37:28.342Z,992.95
2023-01-13T04:38:28.316Z,992.94
2023-01-13T04:39:28.303Z,992.92
2023-01-13T04:40:28.284Z,992.91
2023-01-13T04:41:28.287Z,992.93
2023-01-13T04:42:28.253Z,992.90
2023-01-13T04:43:28.266Z,992.91
2023-01-13T04:44:28.239Z,992.93
2023-01-13T04:45:28.224Z,992.87
2023-01-13T04:46:28.305Z,992.87
2023-01-13T04:47:28.195Z,992.89
2023-01-13T04:48:28.173Z,992.89
2023-01-13T04:49:28.163Z,992.89
2023-01-13T04:50:28.157Z,992.90
2023-01-13T04:51:28.184Z,992.92
2023-01-13T04:52:28.143Z,992.95
2023-01-13T04:53:28.133Z,993.02
2023-01-13T04:54:28.106Z,992.99
2023-01-13T04:55:28.094Z,993.01
2023-01-13T04:56:28.097Z,993.05
2023-01-13T04:57:28.057Z,993.10
2023-01-13T04:58:28.068Z,993.11
2023-01-13T04:59:28.033Z,993.07
2023-01-13T05:00:28.034Z,993.04
2023-01-13T05:01:28.078Z,993.04
2023-01-13T05:02:28.054Z,993.04
2023-01-13T05:03:27.997Z,993.17
2023-01-13T05:04:28.009Z,993.25
2023-01-13T05:05:27.953Z,993.22
2023-01-13T05:06:27.943Z,993.21
2023-01-13T05:07:27.945Z,993.18
2023-01-13T05:08:27.934Z,993.13
2023-01-13T05:09:27.904Z,992.97
2023-01-13T05:10:27.886Z,992.86
2023-01-13T05:11:27.881Z,992.75
2023-01-13T05:12:27.902Z,992.74
2023-01-13T05:13:27.847Z,992.62
2023-01-13T05:14:27.835Z,992.61
2023-01-13T05:15:27.837Z,992.76
2023-01-13T05:16:27.859Z,992.77
2023-01-13T05:17:27.805Z,992.78
2023-01-13T05:18:27.785Z,992.94
2023-01-13T05:19:27.766Z,992.97
2023-01-13T05:20:27.757Z,993.12
2023-01-13T05:21:27.770Z,993.17
2023-01-13T05:22:27.753Z,993.27
2023-01-13T05:23:27.723Z,993.36
2023-01-13T05:24:27.706Z,993.32
2023-01-13T05:25:27.686Z,993.21
2023-01-13T05:26:27.665Z,993.21
2023-01-13T05:27:27.695Z,993.21
2023-01-13T05:28:27.675Z,993.21
2023-01-13T05:29:27.625Z,993.22
2023-01-13T05:30:27.625Z,993.20
2023-01-13T05:31:27.704Z,993.23
2023-01-13T05:32:27.615Z,993.22
2023-01-13T05:33:27.593Z,993.17
2023-01-13T05:34:27.577Z,993.11
2023-01-13T05:35:27.554Z,992.96
2023-01-13T05:36:27.558Z,992.82
2023-01-13T05:37:27.553Z,992.78
2023-01-13T05:38:27.516Z,992.77
2023-01-13T05:39:27.493Z,992.79
2023-01-13T05:40:27.536Z,992.74
2023-01-13T05:41:27.479Z,992.72
2023-01-13T05:42:27.496Z,992.76
2023-01-13T05:43:27.469Z,992.84
2023-01-13T05:44:27.457Z,992.96
2023-01-13T05:45:27.418Z,992.99
2023-01-13T05:46:27.511Z,992.97
2023-01-13T05:47:27.423Z,993.07
2023-01-13T05:48:27.383Z,993.07
2023-01-13T05:49:27.375Z,993.01
2023-01-13T05:50:27.357Z,992.96
2023-01-13T05:51:27.346Z,992.88
2023-01-13T05:52:27.355Z,992.88
2023-01-13T05:53:27.334Z,992.83
2023-01-13T05:54:27.315Z,992.89
2023-01-13T05:55:27.298Z,992.95
2023-01-13T05:56:27.293Z,993.03
2023-01-13T05:57:27.276Z,993.04
2023-01-13T05:58:27.296Z,992.99
2023-01-13T05:59:27.277Z,992.88
2023-01-13T06:00:27.313Z,992.85
2023-01-13T06:01:27.258Z,992.80
2023-01-13T06:02:27.210Z,992.81
2023-01-13T06:03:27.204Z,992.76
2023-01-13T06:04:27.222Z,992.73
2023-01-13T06:05:27.166Z,992.73
2023-01-13T06:06:27.154Z,992.81
2023-01-13T06:07:27.145Z,992.83
2023-01-13T06:08:27.137Z,992.87
2023-01-13T06:09:27.106Z,992.91
2023-01-13T06:10:27.106Z,992.98
2023-01-13T06:11:27.086Z,993.04
2023-01-13T06:12:27.076Z,993.08
2023-01-13T06:13:27.072Z,993.07
2023-01-13T06:14:27.046Z,993.02
2023-01-13T06:15:27.032Z,992.93
2023-01-13T06:16:27.090Z,992.87
2023-01-13T06:17:27.035Z,992.96
2023-01-13T06:18:27.005Z,992.96
2023-01-13T06:19:26.967Z,992.91
2023-01-13T06:20:26.965Z,992.93
2023-01-13T06:21:26.949Z,992.94
2023-01-13T06:22:26.951Z,992.99
2023-01-13T06:23:26.939Z,992.95
2023-01-13T06:24:26.917Z,992.99
2023-01-13T06:25:26.887Z,992.99
2023-01-13T06:26:26.889Z,993.01
2023-01-13T06:27:27.139Z,993.04
2023-01-13T06:28:26.888Z,993.06
2023-01-13T06:29:26.825Z,993.05
2023-01-13T06:30:26.844Z,993.02
2023-01-13T06:31:28.006Z,993.00
2023-01-13T06:32:26.848Z,993.00
2023-01-13T06:33:26.836Z,993.01
2023-01-13T06:34:26.793Z,993.04
2023-01-13T06:35:26.765Z,993.10
2023-01-13T06:36:26.783Z,993.03
2023-01-13T06:37:26.747Z,993.08
2023-01-13T06:38:26.743Z,993.07
2023-01-13T06:39:26.715Z,993.08
2023-01-13T06:40:26.683Z,993.15
2023-01-13T06:41:26.690Z,993.13
2023-01-13T06:42:26.675Z,993.15
2023-01-13T06:43:26.700Z,993.20
2023-01-13T06:44:26.660Z,993.22
2023-01-13T06:45:26.631Z,993.28
2023-01-13T06:46:26.641Z,993.27
2023-01-13T06:47:26.618Z,993.26
2023-01-13T06:48:26.614Z,993.22
2023-01-13T06:49:26.618Z,993.21
2023-01-13T06:50:26.558Z,993.16
2023-01-13T06:51:26.563Z,993.17
2023-01-13T06:52:26.538Z,993.15
2023-01-13T06:53:26.552Z,993.18
2023-01-13T06:54:27.824Z,993.25
2023-01-13T06:55:26.504Z,993.25
2023-01-13T06:56:26.499Z,993.26
2023-01-13T06:57:26.467Z,993.34
2023-01-13T06:58:26.466Z,993.37
2023-01-13T06:59:26.468Z,993.35
2023-01-13T07:00:26.496Z,993.42
2023-01-13T07:01:26.490Z,993.42
2023-01-13T07:02:26.492Z,993.43
2023-01-13T07:03:26.394Z,993.46
2023-01-13T07:04:26.426Z,993.47
2023-01-13T07:05:26.378Z,993.49
2023-01-13T07:06:26.412Z,993.45
2023-01-13T07:07:26.342Z,993.47
2023-01-13T07:08:26.339Z,993.55
2023-01-13T07:09:26.328Z,993.52
2023-01-13T07:10:26.308Z,993.56
2023-01-13T07:11:26.295Z,993.57
2023-01-13T07:12:26.277Z,993.62
2023-01-13T07:13:26.268Z,993.57
2023-01-13T07:14:26.269Z,993.63
2023-01-13T07:15:26.256Z,993.59
2023-01-13T07:16:26.294Z,993.54
2023-01-13T07:17:26.279Z,993.54
2023-01-13T07:18:26.205Z,993.50
2023-01-13T07:19:26.255Z,993.53
2023-01-13T07:20:26.179Z,993.54
2023-01-13T07:21:26.154Z,993.58
2023-01-13T07:22:26.137Z,993.58
2023-01-13T07:23:26.112Z,993.58
2023-01-13T07:24:26.128Z,993.58
2023-01-13T07:25:26.084Z,993.55
2023-01-13T07:26:26.085Z,993.58
2023-01-13T07:27:26.068Z,993.55
2023-01-13T07:28:26.052Z,993.59
2023-01-13T07:29:26.087Z,993.65
2023-01-13T07:30:26.041Z,993.68
2023-01-13T07:31:26.077Z,993.64
2023-01-13T07:32:26.019Z,993.67
2023-01-13T07:33:25.985Z,993.73
2023-01-13T07:34:26.009Z,993.73
2023-01-13T07:35:25.984Z,993.70
2023-01-13T07:36:25.972Z,993.77
2023-01-13T07:37:25.946Z,993.75
2023-01-13T07:38:25.945Z,993.76
2023-01-13T07:39:25.966Z,993.76
2023-01-13T07:40:25.920Z,993.77
2023-01-13T07:41:25.894Z,993.81
2023-01-13T07:42:25.886Z,993.82
2023-01-13T07:43:25.970Z,993.83
2023-01-13T07:44:25.879Z,993.84
2023-01-13T07:45:25.848Z,993.86
2023-01-13T07:46:25.838Z,993.90
2023-01-13T07:47:25.807Z,993.95
2023-01-13T07:48:25.799Z,993.88
2023-01-13T07:49:25.807Z,993.91
2023-01-13T07:50:25.786Z,993.94
2023-01-13T07:51:25.763Z,993.94
2023-01-13T07:52:25.757Z,993.91
2023-01-13T07:53:25.733Z,993.94
2023-01-13T07:54:39.570Z,993.98
2023-01-13T07:55:26.702Z,993.96
2023-01-13T07:56:25.870Z,993.99
2023-01-13T07:57:25.686Z,993.92
2023-01-13T07:58:25.678Z,993.97
2023-01-13T07:59:25.722Z,994.00
2023-01-13T08:00:25.645Z,994.02
2023-01-13T08:01:25.834Z,994.03
2023-01-13T08:02:25.812Z,994.00
2023-01-13T08:03:25.625Z,994.05
2023-01-13T08:04:25.627Z,994.00
2023-01-13T08:05:25.588Z,994.02
2023-01-13T08:06:25.565Z,993.95
2023-01-13T08:07:25.579Z,993.95
2023-01-13T08:08:25.587Z,993.91
2023-01-13T08:09:25.563Z,993.90
2023-01-13T08:10:25.536Z,993.89
2023-01-13T08:11:25.507Z,993.91
2023-01-13T08:12:25.510Z,993.95
2023-01-13T08:13:26.005Z,993.97
2023-01-13T08:14:25.500Z,993.92
2023-01-13T08:15:25.453Z,993.92
2023-01-13T08:16:25.463Z,993.92
2023-01-13T08:17:25.471Z,993.92
2023-01-13T08:18:25.407Z,993.92
2023-01-13T08:19:25.412Z,993.89
2023-01-13T08:20:25.477Z,993.93
2023-01-13T08:21:25.369Z,993.95
2023-01-13T08:22:25.361Z,993.95
2023-01-13T08:23:25.337Z,994.01
2023-01-13T08:24:25.336Z,994.00
2023-01-13T08:25:25.346Z,993.97
2023-01-13T08:26:25.316Z,993.93
2023-01-13T08:27:25.290Z,994.00
2023-01-13T08:28:25.285Z,993.97
2023-01-13T08:29:25.272Z,993.97
2023-01-13T08:30:25.392Z,993.96
2023-01-13T08:31:25.292Z,993.96
2023-01-13T08:32:25.230Z,993.96
2023-01-13T08:33:25.217Z,993.92
2023-01-13T08:34:25.219Z,993.94
2023-01-13T08:35:25.225Z,993.91
2023-01-13T08:36:25.180Z,993.94
2023-01-13T08:37:25.149Z,993.97
2023-01-13T08:38:25.190Z,993.99
2023-01-13T08:39:25.131Z,993.98
2023-01-13T08:40:25.193Z,994.02
2023-01-13T08:41:25.090Z,994.09
2023-01-13T08:42:25.128Z,994.00
2023-01-13T08:43:25.059Z,994.03
2023-01-13T08:44:25.067Z,994.04
2023-01-13T08:45:25.341Z,994.02
2023-01-13T08:46:25.137Z,994.10
2023-01-13T08:47:25.021Z,994.11
2023-01-13T08:48:25.036Z,994.15
2023-01-13T08:49:24.989Z,994.15
2023-01-13T08:50:25.087Z,994.19
2023-01-13T08:51:24.958Z,994.14
2023-01-13T08:52:25.017Z,994.18
2023-01-13T08:53:24.957Z,994.11
2023-01-13T08:54:24.938Z,994.14
2023-01-13T08:55:25.059Z,994.17
2023-01-13T08:56:24.920Z,994.09
2023-01-13T08:57:24.959Z,994.13
2023-01-13T08:58:24.968Z,994.09
2023-01-13T08:59:24.874Z,994.06
2023-01-13T09:00:24.922Z,994.13
2023-01-13T09:01:24.990Z,994.08
2023-01-13T09:02:24.837Z,994.16
2023-01-13T09:03:24.820Z,994.20
2023-01-13T09:04:24.877Z,994.14
2023-01-13T09:05:24.808Z,994.11
2023-01-13T09:06:24.772Z,994.27
2023-01-13T09:07:24.769Z,994.25
2023-01-13T09:08:24.837Z,994.33
2023-01-13T09:09:24.720Z,994.23
2023-01-13T09:10:24.734Z,994.20
2023-01-13T09:11:24.718Z,994.31
2023-01-13T09:12:24.690Z,994.38
2023-01-13T09:13:24.697Z,994.34
2023-01-13T09:14:24.668Z,994.29
2023-01-13T09:15:24.736Z,994.29
2023-01-13T09:16:24.649Z,994.19
2023-01-13T09:17:24.666Z,994.25
2023-01-13T09:18:24.853Z,994.35
2023-01-13T09:19:24.608Z,994.35
2023-01-13T09:20:24.580Z,994.35
2023-01-13T09:21:24.593Z,994.36
2023-01-13T09:22:24.550Z,994.40
2023-01-13T09:23:24.559Z,994.27
2023-01-13T09:24:24.528Z,994.32
2023-01-13T09:25:24.531Z,994.33
2023-01-13T09:26:24.528Z,994.35
2023-01-13T09:27:24.500Z,994.36
2023-01-13T09:28:24.495Z,994.36
2023-01-13T09:29:24.479Z,994.36
2023-01-13T09:30:24.473Z,994.33
2023-01-13T09:31:24.505Z,994.41
2023-01-13T09:32:24.429Z,994.35
2023-01-13T09:33:24.425Z,994.33
2023-01-13T09:34:24.410Z,994.33
2023-01-13T09:35:24.381Z,994.38
2023-01-13T09:36:24.383Z,994.35
2023-01-13T09:37:24.394Z,994.30
2023-01-13T09:38:24.391Z,994.39
2023-01-13T09:39:24.363Z,994.37
2023-01-13T09:40:24.344Z,994.32
2023-01-13T09:41:24.444Z,994.45
2023-01-13T09:42:24.292Z,994.47
2023-01-13T09:43:24.291Z,994.41
2023-01-13T09:44:24.289Z,994.49
2023-01-13T09:45:24.286Z,994.53
2023-01-13T09:46:24.418Z,994.46
2023-01-13T09:47:24.280Z,994.51
2023-01-13T09:48:24.229Z,994.51
2023-01-13T09:49:24.257Z,994.56
2023-01-13T09:50:24.219Z,994.50
2023-01-13T09:51:24.225Z,994.59
2023-01-13T09:52:26.832Z,994.52
2023-01-13T09:53:24.175Z,994.52
2023-01-13T09:54:24.151Z,994.52
2023-01-13T09:55:24.421Z,994.53
2023-01-13T09:56:24.150Z,994.55
2023-01-13T09:57:24.122Z,994.49
2023-01-13T09:58:24.100Z,994.50
2023-01-13T09:59:24.091Z,994.59
2023-01-13T10:00:24.097Z,994.61
2023-01-13T10:01:24.106Z,994.63
2023-01-13T10:02:24.350Z,994.61
2023-01-13T10:03:24.104Z,994.64
2023-01-13T10:04:24.030Z,994.56
2023-01-13T10:05:24.018Z,994.67
2023-01-13T10:06:24.031Z,994.69
2023-01-13T10:07:23.972Z,994.61
2023-01-13T10:08:23.952Z,994.70
2023-01-13T10:09:23.972Z,994.67
2023-01-13T10:10:23.940Z,994.67
2023-01-13T10:11:23.962Z,994.73
2023-01-13T10:12:23.921Z,994.60
2023-01-13T10:13:23.910Z,994.72
2023-01-13T10:14:23.902Z,994.66
2023-01-13T10:15:23.881Z,994.83
2023-01-13T10:16:23.966Z,994.81
2023-01-13T10:17:23.876Z,994.78
2023-01-13T10:18:23.835Z,994.86
2023-01-13T10:19:24.371Z,994.72
2023-01-13T10:20:23.962Z,994.66
2023-01-13T10:21:23.820Z,994.68
2023-01-13T10:22:23.850Z,994.71
2023-01-13T10:23:23.789Z,994.72
2023-01-13T10:24:23.855Z,994.76
2023-01-13T10:25:23.743Z,994.71
2023-01-13T10:26:23.790Z,994.63
2023-01-13T10:27:23.743Z,994.65
2023-01-13T10:28:23.701Z,994.59
2023-01-13T10:29:23.703Z,994.77
2023-01-13T10:30:23.699Z,994.65
2023-01-13T10:31:24.129Z,994.57
2023-01-13T10:32:23.729Z,994.65
2023-01-13T10:33:24.858Z,994.66
2023-01-13T10:34:23.625Z,994.70
2023-01-13T10:35:23.633Z,994.70
2023-01-13T10:36:23.634Z,994.66
2023-01-13T10:37:23.609Z,994.53
2023-01-13T10:38:23.594Z,994.63
2023-01-13T10:39:23.571Z,994.61
2023-01-13T10:40:23.546Z,994.65
2023-01-13T10:41:23.554Z,994.65
2023-01-13T10:42:23.544Z,994.63
2023-01-13T10:43:23.530Z,994.68
2023-01-13T10:44:23.594Z,994.68
2023-01-13T10:45:23.503Z,994.66
2023-01-13T10:46:23.517Z,994.81
2023-01-13T10:47:23.472Z,994.66
2023-01-13T10:48:23.441Z,994.66
2023-01-13T10:49:23.457Z,994.68
2023-01-13T10:50:23.435Z,994.76
2023-01-13T10:51:23.411Z,994.62
2023-01-13T10:52:23.531Z,994.64
2023-01-13T10:53:23.382Z,994.64
2023-01-13T10:54:23.393Z,994.67
2023-01-13T10:55:23.371Z,994.66
2023-01-13T10:56:23.356Z,994.64
2023-01-13T10:57:23.389Z,994.66
2023-01-13T10:58:23.301Z,994.66
2023-01-13T10:59:23.357Z,994.63
2023-01-13T11:00:23.283Z,994.70
2023-01-13T11:01:23.413Z,994.69
2023-01-13T11:02:26.526Z,994.59
2023-01-13T11:03:23.260Z,994.68
2023-01-13T11:04:23.305Z,994.72
2023-01-13T11:05:23.249Z,994.68
2023-01-13T11:06:23.263Z,994.77
2023-01-13T11:07:23.223Z,994.80
2023-01-13T11:08:23.195Z,994.78
2023-01-13T11:09:23.165Z,994.80
2023-01-13T11:10:23.169Z,994.86
2023-01-13T11:11:23.150Z,994.81
2023-01-13T11:12:23.144Z,994.83
2023-01-13T11:13:23.122Z,994.84
2023-01-13T11:15:16.587Z,994.85
2023-01-13T11:16:16.640Z,994.91
2023-01-13T11:17:16.567Z,994.91
2023-01-13T11:18:16.581Z,994.89
2023-01-13T11:19:16.537Z,994.92
2023-01-13T11:20:16.547Z,995.02
2023-01-13T11:21:16.506Z,994.92
2023-01-13T11:22:16.491Z,994.99
2023-01-13T11:23:16.487Z,994.95
2023-01-13T11:24:16.458Z,995.01
2023-01-13T11:25:16.445Z,994.91
2023-01-13T11:26:16.457Z,994.97
2023-01-13T11:27:16.427Z,995.04
2023-01-13T11:28:16.514Z,994.99
2023-01-13T11:29:16.387Z,994.94
2023-01-13T11:30:16.473Z,994.98
2023-01-13T11:31:16.407Z,995.16
2023-01-13T11:32:16.367Z,995.07
2023-01-13T11:33:16.376Z,995.00
2023-01-13T11:34:16.351Z,995.00
2023-01-13T11:35:16.327Z,994.94
2023-01-13T11:36:17.771Z,995.01
2023-01-13T11:37:16.297Z,994.88
2023-01-13T11:38:16.351Z,995.03
2023-01-13T11:39:16.257Z,995.00
2023-01-13T11:40:16.323Z,994.99
2023-01-13T11:41:16.237Z,995.00
2023-01-13T11:42:16.237Z,994.97
2023-01-13T11:43:16.226Z,994.92
2023-01-13T11:44:16.218Z,994.89
2023-01-13T11:45:16.204Z,994.97
2023-01-13T11:46:16.328Z,995.02
2023-01-13T11:47:16.156Z,994.94
2023-01-13T11:48:16.307Z,995.09
2023-01-13T11:49:16.125Z,995.01
2023-01-13T11:50:16.209Z,994.97
2023-01-13T11:51:16.247Z,994.95
2023-01-13T11:52:16.111Z,994.95
2023-01-13T11:53:16.120Z,994.94
2023-01-13T11:54:16.068Z,994.95
2023-01-13T11:55:16.048Z,994.91
2023-01-13T11:56:16.040Z,994.92
2023-01-13T11:57:16.029Z,994.89
2023-01-13T11:58:16.130Z,994.88
2023-01-13T11:59:16.021Z,994.92
2023-01-13T12:00:15.991Z,994.90
2023-01-13T12:01:16.036Z,994.85
2023-01-13T12:02:16.017Z,994.89
2023-01-13T12:03:15.983Z,994.96
2023-01-13T12:04:15.928Z,994.92
2023-01-13T12:05:16.012Z,995.04
2023-01-13T12:06:15.914Z,995.01
2023-01-13T12:07:15.898Z,994.95
2023-01-13T12:08:16.026Z,994.96
2023-01-13T12:09:15.881Z,994.97
2023-01-13T12:10:15.871Z,994.93
2023-01-13T12:11:15.850Z,995.06
2023-01-13T12:12:15.832Z,994.96
2023-01-13T12:13:15.872Z,994.98
2023-01-13T12:14:15.825Z,994.94
2023-01-13T12:15:15.798Z,994.81
2023-01-13T12:16:15.863Z,994.92
2023-01-13T12:17:15.769Z,994.90
2023-01-13T12:18:15.937Z,995.00
2023-01-13T12:19:15.747Z,995.05
2023-01-13T12:20:15.729Z,994.95
2023-01-13T12:21:15.711Z,995.01
2023-01-13T12:22:15.700Z,994.96
2023-01-13T12:23:15.695Z,994.82
2023-01-13T12:24:15.688Z,994.97
2023-01-13T12:25:15.662Z,994.79
2023-01-13T12:26:15.869Z,994.87
2023-01-13T12:27:15.641Z,994.90
2023-01-13T12:28:15.650Z,994.86
2023-01-13T12:29:15.620Z,994.79